Time;durP1;ratioP1;P1;durP2;ratioP2;P2;SDS_P1;SDS_P2;PMS_P1;PMS_P2;Temp;Humidity;BMP_temperature;BMP_pressure;BME280_temperature;BME280_humidity;BME280_pressure;Samples;Min_cycle;Max_cycle;Signal;HPM_P1;HPM_P2
2023/10/29 00:00:49;;;;;;;4.27;3.50;;;10.30;99.90;;;;;;5015199;28;20584;-66
2023/10/29 00:03:15;;;;;;;5.43;3.10;;;10.30;99.90;;;;;;5014786;28;20258;-66
2023/10/29 00:05:41;;;;;;;5.57;3.87;;;10.30;99.90;;;;;;5015041;28;20576;-66
2023/10/29 00:08:09;;;;;;;3.87;3.43;;;10.30;99.90;;;;;;5014765;28;20714;-66
2023/10/29 00:10:34;;;;;;;5.00;4.20;;;10.30;99.90;;;;;;5014860;28;20426;-66
2023/10/29 00:13:01;;;;;;;5.90;3.27;;;10.30;99.90;;;;;;5014601;28;20421;-66
2023/10/29 00:15:27;;;;;;;4.00;2.77;;;10.30;99.90;;;;;;5014700;28;20571;-66
2023/10/29 00:17:53;;;;;;;4.17;3.03;;;10.30;99.90;;;;;;5014633;28;20433;-66
2023/10/29 00:20:18;;;;;;;4.80;2.87;;;10.30;99.90;;;;;;5014689;28;20198;-66
2023/10/29 00:22:44;;;;;;;4.57;3.03;;;10.30;99.90;;;;;;5014257;28;20648;-66
2023/10/29 00:25:10;;;;;;;4.10;3.40;;;10.20;99.90;;;;;;5014629;28;20233;-66
2023/10/29 00:27:35;;;;;;;3.40;2.53;;;10.30;99.90;;;;;;5014286;28;20211;-66
2023/10/29 00:30:01;;;;;;;7.43;3.30;;;10.30;99.90;;;;;;5014521;28;20501;-66
2023/10/29 00:32:26;;;;;;;5.07;2.93;;;10.30;99.90;;;;;;5014389;28;20171;-66
2023/10/29 00:34:52;;;;;;;8.90;4.30;;;10.30;99.90;;;;;;5014134;28;20244;-66
2023/10/29 00:37:17;;;;;;;3.27;2.43;;;10.20;99.90;;;;;;5014223;28;20269;-66
2023/10/29 00:39:43;;;;;;;3.30;2.53;;;10.20;99.90;;;;;;5014242;28;20182;-66
2023/10/29 00:42:11;;;;;;;6.50;2.57;;;10.20;99.90;;;;;;5014274;28;20171;-66
2023/10/29 00:44:37;;;;;;;5.37;3.33;;;10.20;99.90;;;;;;5014016;28;20170;-66
2023/10/29 00:47:06;;;;;;;2.63;2.43;;;10.20;99.90;;;;;;5013052;28;20533;-66
2023/10/29 00:49:34;;;;;;;5.87;2.57;;;10.20;99.90;;;;;;5014090;28;20178;-66
2023/10/29 00:51:59;;;;;;;2.90;2.70;;;10.20;99.90;;;;;;5014035;28;20939;-66
2023/10/29 00:54:25;;;;;;;5.30;2.50;;;10.20;99.90;;;;;;5013939;28;20458;-65
2023/10/29 00:56:53;;;;;;;2.83;2.37;;;10.20;99.90;;;;;;5014011;28;20209;-66
2023/10/29 00:59:20;;;;;;;4.10;2.33;;;10.20;99.90;;;;;;5012583;28;20257;-66
2023/10/29 01:01:46;;;;;;;3.47;2.23;;;10.20;99.90;;;;;;5013846;28;20413;-66
2023/10/29 01:04:11;;;;;;;3.30;2.10;;;10.30;99.90;;;;;;5013655;28;20998;-66
2023/10/29 01:06:39;;;;;;;4.70;2.60;;;10.30;99.90;;;;;;5013812;28;20170;-66
2023/10/29 01:09:06;;;;;;;2.50;2.30;;;10.40;99.90;;;;;;5013644;28;20274;-66
2023/10/29 01:11:32;;;;;;;8.83;2.40;;;10.40;99.90;;;;;;5013624;28;20422;-66
2023/10/29 01:13:58;;;;;;;3.27;2.50;;;10.50;99.90;;;;;;5013389;28;20834;-66
2023/10/29 01:16:23;;;;;;;4.60;2.60;;;10.50;99.90;;;;;;5013659;28;20215;-66
2023/10/29 01:18:49;;;;;;;3.73;2.60;;;10.40;99.90;;;;;;5013547;28;20230;-66
2023/10/29 01:21:16;;;;;;;2.53;2.13;;;10.40;99.90;;;;;;5013565;28;20179;-66
2023/10/29 01:23:41;;;;;;;4.53;2.50;;;10.40;99.90;;;;;;5013254;28;20253;-66
2023/10/29 01:26:07;;;;;;;3.63;3.00;;;10.40;99.90;;;;;;5013398;28;20927;-66
2023/10/29 01:28:32;;;;;;;4.03;2.23;;;10.40;99.90;;;;;;5013217;28;20675;-66
2023/10/29 01:30:59;;;;;;;4.03;2.63;;;10.40;99.90;;;;;;5013379;28;20210;-66
2023/10/29 01:33:25;;;;;;;9.33;3.33;;;10.30;99.90;;;;;;5013105;28;20181;-66
2023/10/29 01:35:51;;;;;;;5.90;2.87;;;10.30;99.90;;;;;;5011949;28;20500;-66
2023/10/29 01:38:16;;;;;;;2.90;2.60;;;10.20;99.90;;;;;;5013200;28;20433;-66
2023/10/29 01:40:42;;;;;;;3.17;2.50;;;10.20;99.90;;;;;;5013169;28;20651;-66
2023/10/29 01:43:08;;;;;;;3.73;3.10;;;10.10;99.90;;;;;;5012843;28;20170;-66
2023/10/29 01:45:33;;;;;;;3.17;2.87;;;10.10;99.90;;;;;;5013123;28;20233;-66
2023/10/29 01:47:59;;;;;;;3.30;2.60;;;10.10;99.90;;;;;;5013038;28;20199;-66
2023/10/29 01:50:24;;;;;;;3.73;3.03;;;10.10;99.90;;;;;;5013028;28;20636;-66
2023/10/29 01:52:53;;;;;;;4.17;2.90;;;10.10;99.90;;;;;;5011465;28;20198;-66
2023/10/29 01:55:19;;;;;;;3.13;2.30;;;10.10;99.90;;;;;;5012810;28;20249;-66
2023/10/29 01:57:44;;;;;;;3.47;3.03;;;10.10;99.90;;;;;;5012526;28;20430;-66
2023/10/29 02:00:11;;;;;;;3.70;3.40;;;10.10;99.90;;;;;;5012822;28;20194;-66
2023/10/29 02:02:36;;;;;;;4.50;2.60;;;10.00;99.90;;;;;;5012543;28;20690;-66
2023/10/29 02:05:03;;;;;;;6.33;2.47;;;10.00;99.90;;;;;;5012614;28;20517;-66
2023/10/29 02:07:29;;;;;;;3.20;2.80;;;10.00;99.90;;;;;;5012725;28;20187;-66
2023/10/29 02:09:55;;;;;;;3.83;2.67;;;10.00;99.90;;;;;;5012712;28;20422;-66
2023/10/29 02:12:21;;;;;;;3.20;2.90;;;10.00;99.90;;;;;;5012623;28;20918;-66
2023/10/29 02:14:46;;;;;;;5.10;2.93;;;10.00;99.90;;;;;;5012373;28;20208;-66
2023/10/29 02:17:12;;;;;;;2.60;2.30;;;10.00;99.90;;;;;;5012636;28;20179;-66
2023/10/29 02:19:38;;;;;;;2.80;2.60;;;9.90;99.90;;;;;;5012462;28;20163;-66
2023/10/29 02:22:04;;;;;;;2.77;2.57;;;9.90;99.90;;;;;;5012516;28;20171;-66
2023/10/29 02:24:29;;;;;;;2.97;2.20;;;9.90;99.90;;;;;;5012253;28;20425;-66
2023/10/29 02:26:55;;;;;;;1.87;1.77;;;10.00;99.90;;;;;;5012431;28;20174;-66
2023/10/29 02:29:21;;;;;;;4.03;2.73;;;10.00;99.90;;;;;;5012383;28;20241;-66
2023/10/29 02:31:46;;;;;;;3.40;2.40;;;10.00;99.90;;;;;;5012331;28;20429;-66
2023/10/29 02:34:12;;;;;;;3.10;2.80;;;10.00;99.90;;;;;;5012054;28;20206;-66
2023/10/29 02:36:38;;;;;;;4.10;2.20;;;10.10;99.90;;;;;;5012557;28;20166;-66
2023/10/29 02:39:03;;;;;;;2.50;2.30;;;10.10;99.90;;;;;;5012289;28;20730;-66
2023/10/29 02:41:30;;;;;;;4.00;2.30;;;10.10;99.90;;;;;;5012291;28;20170;-66
2023/10/29 02:43:55;;;;;;;2.47;1.87;;;10.10;99.90;;;;;;5012005;28;20178;-66
2023/10/29 02:46:21;;;;;;;2.07;1.97;;;10.10;99.90;;;;;;5012251;28;20414;-66
2023/10/29 02:48:46;;;;;;;3.87;2.43;;;10.10;99.90;;;;;;5012130;28;20202;-66
2023/10/29 02:51:12;;;;;;;3.87;2.60;;;10.00;99.90;;;;;;5012239;28;20186;-66
2023/10/29 02:53:38;;;;;;;5.77;2.40;;;10.00;99.90;;;;;;5011990;28;20630;-66
2023/10/29 02:56:04;;;;;;;2.60;2.30;;;10.00;99.90;;;;;;5012094;28;20229;-66
2023/10/29 02:58:30;;;;;;;3.00;2.60;;;9.90;99.90;;;;;;5010941;28;20451;-66
2023/10/29 03:01:06;;;;;;;2.53;2.33;;;9.90;99.90;;;;;;5012159;28;20523;-66
2023/10/29 03:03:32;;;;;;;4.80;2.70;;;9.80;99.90;;;;;;5012004;28;20162;-66
2023/10/29 03:05:58;;;;;;;2.50;2.30;;;9.80;99.90;;;;;;5012131;28;20984;-66
2023/10/29 03:08:24;;;;;;;4.00;2.00;;;9.80;99.90;;;;;;5011648;28;20547;-66
2023/10/29 03:10:50;;;;;;;2.63;2.20;;;9.70;99.90;;;;;;5015209;28;20246;-66
2023/10/29 03:13:15;;;;;;;2.90;2.60;;;9.70;99.90;;;;;;5015714;28;20182;-66
2023/10/29 03:15:41;;;;;;;3.40;2.97;;;9.70;99.90;;;;;;5015798;28;20468;-66
2023/10/29 03:18:07;;;;;;;2.60;2.10;;;9.60;99.90;;;;;;5015725;28;20222;-66
2023/10/29 03:20:32;;;;;;;5.80;2.00;;;9.60;99.90;;;;;;5015787;28;20175;-66
2023/10/29 03:22:58;;;;;;;2.40;2.20;;;9.60;99.90;;;;;;5015558;28;20616;-66
2023/10/29 03:25:24;;;;;;;2.37;2.17;;;9.50;99.90;;;;;;5015696;28;20181;-66
2023/10/29 03:27:49;;;;;;;2.27;2.07;;;9.60;99.90;;;;;;5015444;28;20469;-66
2023/10/29 03:30:15;;;;;;;2.57;1.93;;;9.60;99.90;;;;;;5015603;28;20183;-66
2023/10/29 03:32:40;;;;;;;3.07;1.80;;;9.60;99.90;;;;;;5015306;28;20178;-66
2023/10/29 03:35:06;;;;;;;1.87;1.77;;;9.50;99.90;;;;;;5015538;28;20213;-66
2023/10/29 03:37:32;;;;;;;2.20;2.00;;;9.50;99.90;;;;;;5015566;28;20191;-66
2023/10/29 03:39:58;;;;;;;1.67;1.50;;;9.70;99.90;;;;;;5015403;28;20543;-66
2023/10/29 03:42:24;;;;;;;2.40;1.73;;;9.80;99.90;;;;;;5015328;28;20577;-66
2023/10/29 03:44:49;;;;;;;2.97;1.60;;;9.90;99.90;;;;;;5015230;28;20426;-66
2023/10/29 03:47:15;;;;;;;1.60;1.50;;;10.00;99.90;;;;;;5015188;28;20221;-66
2023/10/29 03:49:43;;;;;;;1.83;1.70;;;10.10;99.90;;;;;;5015214;28;20175;-66
2023/10/29 03:52:09;;;;;;;4.70;1.97;;;10.10;99.90;;;;;;5015217;28;20266;-66
2023/10/29 03:54:34;;;;;;;2.20;1.67;;;10.10;99.90;;;;;;5014838;28;20531;-66
2023/10/29 03:57:00;;;;;;;1.63;1.20;;;10.20;99.90;;;;;;5015174;28;20717;-66
2023/10/29 03:59:25;;;;;;;1.60;1.50;;;10.30;99.90;;;;;;5015081;28;20688;-66
2023/10/29 04:01:51;;;;;;;8.43;2.13;;;10.40;99.90;;;;;;5015029;28;20684;-66
2023/10/29 04:04:16;;;;;;;1.53;1.30;;;10.50;99.90;;;;;;5014748;28;20508;-66
2023/10/29 04:06:43;;;;;;;1.63;1.20;;;10.60;99.90;;;;;;5015024;28;20175;-66
2023/10/29 04:09:09;;;;;;;1.77;1.50;;;10.70;99.90;;;;;;5014755;28;20187;-67
2023/10/29 04:11:35;;;;;;;2.80;1.20;;;10.80;99.90;;;;;;5014869;28;20927;-66
2023/10/29 04:14:01;;;;;;;2.20;1.00;;;10.80;99.90;;;;;;5014505;28;20415;-66
2023/10/29 04:16:27;;;;;;;1.30;1.20;;;10.80;99.90;;;;;;5014592;28;20199;-66
2023/10/29 04:18:53;;;;;;;2.00;1.10;;;10.90;99.90;;;;;;5014696;28;20456;-66
2023/10/29 04:21:18;;;;;;;3.20;1.20;;;10.90;99.90;;;;;;5014488;28;20163;-66
2023/10/29 04:23:44;;;;;;;6.50;1.80;;;11.00;99.90;;;;;;5014347;28;20667;-66
2023/10/29 04:26:09;;;;;;;1.20;1.10;;;11.00;99.90;;;;;;5014584;28;20265;-66
2023/10/29 04:28:35;;;;;;;2.30;1.40;;;11.00;99.90;;;;;;5014376;28;20213;-66
2023/10/29 04:31:01;;;;;;;3.10;1.70;;;10.90;99.90;;;;;;5014421;28;20177;-66
2023/10/29 04:33:27;;;;;;;3.30;1.50;;;10.90;99.90;;;;;;5014332;28;20175;-66
2023/10/29 04:35:53;;;;;;;1.83;1.40;;;10.90;99.90;;;;;;5014361;28;20510;-66
2023/10/29 04:38:18;;;;;;;1.50;1.40;;;10.80;99.90;;;;;;5014306;28;20191;-66
2023/10/29 04:40:44;;;;;;;4.37;1.33;;;10.80;99.90;;;;;;5014289;28;20171;-66
2023/10/29 04:43:09;;;;;;;1.10;1.00;;;10.90;99.90;;;;;;5014031;28;20163;-66
2023/10/29 04:45:35;;;;;;;6.23;1.13;;;10.90;99.90;;;;;;5014184;28;20541;-66
2023/10/29 04:48:00;;;;;;;2.30;1.97;;;11.00;99.90;;;;;;5014179;28;20252;-66
2023/10/29 04:50:26;;;;;;;1.87;1.20;;;11.00;99.90;;;;;;5014299;28;20221;-66
2023/10/29 04:52:52;;;;;;;1.43;1.17;;;11.10;99.90;;;;;;5013980;28;20311;-66
2023/10/29 04:55:18;;;;;;;1.20;1.10;;;11.10;99.90;;;;;;5013999;28;20537;-66
2023/10/29 04:57:43;;;;;;;1.67;1.57;;;11.10;99.90;;;;;;5014000;28;20487;-66
2023/10/29 05:00:09;;;;;;;1.63;1.47;;;11.10;99.90;;;;;;5013847;28;20167;-66
2023/10/29 05:02:35;;;;;;;4.23;1.50;;;11.10;99.90;;;;;;5013642;28;20217;-66
2023/10/29 05:05:01;;;;;;;1.67;1.57;;;11.10;99.90;;;;;;5013865;28;21011;-66
2023/10/29 05:07:27;;;;;;;2.97;1.73;;;11.10;99.90;;;;;;5013619;28;20434;-66
2023/10/29 05:09:53;;;;;;;1.33;1.23;;;11.00;99.90;;;;;;5013516;28;20475;-66
2023/10/29 05:12:18;;;;;;;1.73;1.40;;;11.00;99.90;;;;;;5013711;28;20163;-66
2023/10/29 05:14:44;;;;;;;1.73;1.30;;;10.90;99.90;;;;;;5013396;28;20694;-66
2023/10/29 05:17:10;;;;;;;1.40;1.30;;;10.90;99.90;;;;;;5013590;28;20166;-66
2023/10/29 05:19:35;;;;;;;2.10;1.07;;;10.90;99.90;;;;;;5013597;28;20163;-66
2023/10/29 05:22:01;;;;;;;1.83;1.20;;;10.90;99.90;;;;;;5013496;28;20925;-66
2023/10/29 05:24:27;;;;;;;1.40;1.30;;;10.80;99.90;;;;;;5013430;28;20167;-66
2023/10/29 05:26:52;;;;;;;2.07;1.50;;;10.80;99.90;;;;;;5013448;28;20159;-66
2023/10/29 05:29:18;;;;;;;1.97;1.70;;;10.70;99.90;;;;;;5013721;28;20210;-66
2023/10/29 05:31:43;;;;;;;1.53;1.40;;;10.70;99.90;;;;;;5013030;28;20171;-66
2023/10/29 05:34:09;;;;;;;1.70;1.43;;;10.80;99.90;;;;;;5012930;28;20579;-66
2023/10/29 05:36:35;;;;;;;1.53;1.40;;;10.80;99.90;;;;;;5013125;28;20195;-66
2023/10/29 05:39:01;;;;;;;2.83;1.10;;;10.80;99.90;;;;;;5013191;28;20182;-66
2023/10/29 05:41:26;;;;;;;2.00;1.33;;;10.80;99.90;;;;;;5013240;28;20426;-66
2023/10/29 05:43:52;;;;;;;2.13;1.27;;;10.70;99.90;;;;;;5012924;28;20446;-66
2023/10/29 05:46:18;;;;;;;2.90;1.80;;;10.70;99.90;;;;;;5013071;28;20655;-66
2023/10/29 05:48:43;;;;;;;2.70;2.50;;;10.70;99.90;;;;;;5012985;28;20194;-66
2023/10/29 05:51:12;;;;;;;1.50;1.40;;;10.70;99.90;;;;;;5013260;28;20178;-66
2023/10/29 05:53:38;;;;;;;2.57;2.07;;;10.80;99.90;;;;;;5012574;28;20178;-66
2023/10/29 05:56:05;;;;;;;2.37;1.80;;;10.80;99.90;;;;;;5012837;28;20465;-66
2023/10/29 05:58:30;;;;;;;2.47;1.77;;;10.80;99.90;;;;;;5012886;28;20991;-66
2023/10/29 06:00:56;;;;;;;4.57;2.40;;;10.80;99.90;;;;;;5012848;28;20426;-66
2023/10/29 06:03:22;;;;;;;3.47;1.80;;;10.80;99.90;;;;;;5012560;28;20175;-66
2023/10/29 06:05:47;;;;;;;1.97;1.47;;;10.80;99.90;;;;;;5012791;28;20179;-66
2023/10/29 06:08:13;;;;;;;2.70;1.90;;;10.80;99.90;;;;;;5012412;28;20568;-66
2023/10/29 06:10:39;;;;;;;2.90;1.97;;;10.90;99.90;;;;;;5012668;28;20182;-66
2023/10/29 06:13:05;;;;;;;4.07;2.70;;;10.90;99.90;;;;;;5012455;28;20422;-66
2023/10/29 06:15:30;;;;;;;3.87;1.87;;;10.90;99.90;;;;;;5012641;28;20198;-66
2023/10/29 06:17:56;;;;;;;2.37;1.93;;;11.00;99.90;;;;;;5012578;28;20202;-66
2023/10/29 06:20:22;;;;;;;2.13;1.60;;;11.00;99.90;;;;;;5012432;28;20637;-66
2023/10/29 06:22:48;;;;;;;3.80;1.33;;;11.10;99.90;;;;;;5012286;28;20167;-66
2023/10/29 06:25:15;;;;;;;1.90;1.80;;;11.20;99.90;;;;;;5011299;28;20429;-66
2023/10/29 06:27:41;;;;;;;3.37;1.43;;;11.20;99.90;;;;;;5012271;28;20293;-66
2023/10/29 06:30:07;;;;;;;1.63;1.53;;;11.30;99.90;;;;;;5012459;28;20504;-66
2023/10/29 06:32:33;;;;;;;2.57;1.53;;;11.40;99.90;;;;;;5012258;28;20178;-66
2023/10/29 06:34:58;;;;;;;1.40;1.30;;;11.50;99.90;;;;;;5012107;28;20500;-66
2023/10/29 06:37:24;;;;;;;1.90;1.70;;;11.70;99.90;;;;;;5012341;28;20561;-66
2023/10/29 06:39:49;;;;;;;1.70;1.60;;;11.80;99.90;;;;;;5012382;28;20226;-66
2023/10/29 06:42:15;;;;;;;2.80;1.70;;;11.90;99.90;;;;;;5012274;28;20175;-66
2023/10/29 06:44:40;;;;;;;2.33;2.00;;;12.00;99.90;;;;;;5010851;28;20257;-66
2023/10/29 06:47:07;;;;;;;1.80;1.53;;;12.20;99.90;;;;;;5011977;28;20190;-66
2023/10/29 06:49:33;;;;;;;5.03;2.60;;;12.30;99.90;;;;;;5011961;28;20209;-66
2023/10/29 06:51:58;;;;;;;2.00;1.80;;;12.30;99.90;;;;;;5012001;28;20434;-66
2023/10/29 06:54:24;;;;;;;1.57;1.30;;;12.50;99.90;;;;;;5011675;28;20207;-66
2023/10/29 06:56:50;;;;;;;1.57;1.47;;;12.50;99.90;;;;;;5012002;28;20722;-66
2023/10/29 06:59:15;;;;;;;1.30;1.20;;;12.60;99.90;;;;;;5011888;28;20433;-66
2023/10/29 07:01:42;;;;;;;1.60;1.33;;;12.60;99.90;;;;;;5011953;28;20175;-66
2023/10/29 07:04:08;;;;;;;1.83;1.37;;;12.70;99.90;;;;;;5011538;28;20163;-66
2023/10/29 07:06:33;;;;;;;1.20;1.10;;;12.70;99.90;;;;;;5011900;28;20433;-66
2023/10/29 07:09:00;;;;;;;2.03;1.93;;;12.70;99.90;;;;;;5011519;28;20244;-66
2023/10/29 07:11:28;;;;;;;1.90;1.40;;;12.70;99.90;;;;;;5011860;28;20217;-66
2023/10/29 07:13:53;;;;;;;1.27;1.20;;;12.70;99.90;;;;;;5010311;28;20433;-66
2023/10/29 07:16:19;;;;;;;2.50;1.50;;;12.70;99.90;;;;;;5011665;28;20457;-66
2023/10/29 07:18:44;;;;;;;3.10;1.60;;;12.70;99.90;;;;;;5011657;28;20237;-66
2023/10/29 07:21:10;;;;;;;1.60;1.43;;;12.80;99.90;;;;;;5011883;28;20198;-66
2023/10/29 07:23:35;;;;;;;2.00;1.40;;;12.80;99.90;;;;;;5011570;28;20548;-66
2023/10/29 07:26:01;;;;;;;2.03;1.70;;;12.80;99.90;;;;;;5011766;28;20648;-66
2023/10/29 07:28:28;;;;;;;2.00;1.50;;;12.80;99.90;;;;;;5011404;28;20215;-66
2023/10/29 07:30:54;;;;;;;1.37;1.27;;;12.80;99.90;;;;;;5011692;28;20181;-66
2023/10/29 07:33:19;;;;;;;1.90;1.27;;;12.80;99.90;;;;;;5011333;28;20410;-66
2023/10/29 07:35:45;;;;;;;1.80;1.70;;;12.90;99.90;;;;;;5011477;28;20229;-66
2023/10/29 07:38:10;;;;;;;1.67;1.57;;;12.90;99.90;;;;;;5011557;28;20187;-66
2023/10/29 07:40:36;;;;;;;1.60;1.50;;;12.90;99.90;;;;;;5011601;28;20177;-66
2023/10/29 07:43:03;;;;;;;3.80;1.50;;;12.90;99.90;;;;;;5011297;28;20593;-66
2023/10/29 07:45:29;;;;;;;2.83;1.43;;;13.00;99.90;;;;;;5011551;28;20266;-66
2023/10/29 07:47:54;;;;;;;1.70;1.60;;;13.00;99.90;;;;;;5011406;28;20818;-66
2023/10/29 07:50:21;;;;;;;2.07;1.40;;;13.00;99.90;;;;;;5010186;28;20179;-66
2023/10/29 07:52:46;;;;;;;1.67;1.57;;;13.10;99.90;;;;;;5011326;28;20195;-66
2023/10/29 07:55:12;;;;;;;1.50;1.40;;;13.10;99.90;;;;;;5011981;28;21054;-66
2023/10/29 07:57:41;;;;;;;3.67;1.50;;;13.10;99.90;;;;;;5015070;28;20205;-66
2023/10/29 08:00:11;;;;;;;8.23;1.80;;;13.10;99.90;;;;;;5015064;28;20171;-66
2023/10/29 08:02:37;;;;;;;1.73;1.47;;;13.20;99.90;;;;;;5014682;28;20500;-66
2023/10/29 08:05:02;;;;;;;2.03;1.83;;;13.20;99.90;;;;;;5014965;28;20902;-66
2023/10/29 08:07:29;;;;;;;4.70;1.70;;;13.30;99.90;;;;;;5014959;28;20540;-66
2023/10/29 08:09:56;;;;;;;1.53;1.43;;;13.40;99.90;;;;;;5014613;28;20197;-66
2023/10/29 08:12:22;;;;;;;3.00;1.67;;;13.60;99.90;;;;;;5014793;28;20833;-66
2023/10/29 08:14:48;;;;;;;2.20;1.67;;;13.80;99.90;;;;;;5014348;28;20461;-66
2023/10/29 08:17:17;;;;;;;2.17;1.80;;;14.30;99.90;;;;;;5014545;28;20468;-66
2023/10/29 08:19:45;;;;;;;2.90;2.37;;;14.70;99.90;;;;;;5014602;28;20174;-66
2023/10/29 08:22:11;;;;;;;2.10;1.80;;;14.90;99.90;;;;;;5014506;28;20422;-66
2023/10/29 08:24:37;;;;;;;2.47;2.23;;;15.00;99.90;;;;;;5014220;28;20422;-67
2023/10/29 08:27:03;;;;;;;3.30;2.83;;;15.00;99.90;;;;;;5014362;28;20258;-66
2023/10/29 08:29:31;;;;;;;2.33;2.13;;;14.90;99.90;;;;;;5014528;28;20438;-66
2023/10/29 08:31:56;;;;;;;3.93;2.17;;;14.80;99.90;;;;;;5014273;28;20454;-66
2023/10/29 08:34:22;;;;;;;2.60;2.37;;;14.90;99.90;;;;;;5013925;28;20864;-66
2023/10/29 08:36:47;;;;;;;3.73;1.83;;;14.90;99.90;;;;;;5014279;28;20175;-66
2023/10/29 08:39:16;;;;;;;2.60;2.40;;;14.90;99.90;;;;;;5014037;28;20203;-66
2023/10/29 08:41:41;;;;;;;3.20;2.57;;;14.90;99.90;;;;;;5014165;28;20167;-66
2023/10/29 08:44:07;;;;;;;1.70;1.60;;;15.10;99.90;;;;;;5013879;28;20422;-66
2023/10/29 08:46:32;;;;;;;2.00;1.90;;;15.10;99.90;;;;;;5013991;28;20229;-66
2023/10/29 08:48:58;;;;;;;1.53;1.43;;;15.00;99.90;;;;;;5013976;28;20195;-66
2023/10/29 08:51:23;;;;;;;2.37;2.17;;;15.00;99.90;;;;;;5013901;28;20525;-66
2023/10/29 08:53:49;;;;;;;3.33;2.80;;;14.80;99.90;;;;;;5013605;28;20171;-66
2023/10/29 08:56:15;;;;;;;3.73;2.93;;;14.70;99.90;;;;;;5013782;28;20668;-66
2023/10/29 08:58:41;;;;;;;2.10;1.83;;;14.60;99.90;;;;;;5013844;28;20233;-66
2023/10/29 09:01:07;;;;;;;5.60;1.80;;;14.60;99.90;;;;;;5014018;28;20433;-66
2023/10/29 09:03:33;;;;;;;3.10;2.20;;;14.50;99.90;;;;;;5013499;28;20220;-66
2023/10/29 09:06:03;;;;;;;1.70;1.60;;;14.60;99.90;;;;;;5013586;28;20801;-66
2023/10/29 09:08:35;;;;;;;2.00;1.90;;;14.80;99.90;;;;;;5012143;28;20190;-67
2023/10/29 09:11:01;;;;;;;2.10;1.93;;;14.90;99.90;;;;;;5013620;28;20794;-66
2023/10/29 09:13:27;;;;;;;2.33;1.70;;;15.00;99.90;;;;;;5013193;28;20428;-66
2023/10/29 09:15:52;;;;;;;1.90;1.70;;;15.00;99.90;;;;;;5013336;28;20207;-66
2023/10/29 09:18:19;;;;;;;4.63;1.73;;;15.00;99.90;;;;;;5013291;28;20436;-66
2023/10/29 09:20:48;;;;;;;4.13;2.07;;;15.10;99.90;;;;;;5013353;28;20167;-66
2023/10/29 09:23:17;;;;;;;2.53;2.00;;;15.30;99.90;;;;;;5013222;28;20418;-66
2023/10/29 09:25:46;;;;;;;2.77;2.13;;;15.50;99.90;;;;;;5013453;28;20425;-66
2023/10/29 09:28:13;;;;;;;3.30;1.90;;;15.70;99.90;;;;;;5013269;28;20512;-66
2023/10/29 09:30:39;;;;;;;2.17;1.77;;;15.80;99.90;;;;;;5013348;28;20941;-66
2023/10/29 09:33:05;;;;;;;3.37;1.93;;;15.80;99.90;;;;;;5013172;28;20516;-66
2023/10/29 09:35:32;;;;;;;1.80;1.70;;;15.50;99.90;;;;;;5013240;28;20281;-66
2023/10/29 09:37:58;;;;;;;2.40;1.87;;;15.30;99.90;;;;;;5013260;28;20625;-66
2023/10/29 09:40:24;;;;;;;2.73;2.03;;;15.00;99.90;;;;;;5013193;28;20426;-66
2023/10/29 09:42:55;;;;;;;1.93;1.73;;;14.90;99.90;;;;;;5012831;28;20513;-66
2023/10/29 09:45:26;;;;;;;2.50;2.30;;;14.90;99.90;;;;;;5012975;28;20475;-66
2023/10/29 09:47:56;;;;;;;3.83;3.03;;;14.90;99.90;;;;;;5012913;28;20515;-66
2023/10/29 09:50:22;;;;;;;2.37;2.17;;;15.10;99.90;;;;;;5012868;28;20425;-66
2023/10/29 09:52:52;;;;;;;2.23;2.03;;;15.20;99.90;;;;;;5012583;28;20453;-66
2023/10/29 09:55:22;;;;;;;1.90;1.80;;;15.30;99.90;;;;;;5012710;28;20461;-66
2023/10/29 09:57:49;;;;;;;2.47;2.20;;;15.30;99.90;;;;;;5012560;28;20438;-66
2023/10/29 10:00:16;;;;;;;3.00;2.10;;;15.30;99.90;;;;;;5012830;28;20580;-66
2023/10/29 10:03:08;;;;;;;2.73;1.73;;;15.30;99.90;;;;;;5012401;28;20860;-66
2023/10/29 10:05:35;;;;;;;2.43;1.97;;;15.50;99.90;;;;;;5012296;28;20797;-66
2023/10/29 10:08:01;;;;;;;3.17;2.40;;;15.60;99.90;;;;;;5012455;28;20935;-66
2023/10/29 10:10:39;;;;;;;3.73;1.87;;;15.70;99.90;;;;;;5012446;28;20428;-66
2023/10/29 10:13:05;;;;;;;1.87;1.63;;;15.80;99.90;;;;;;5012250;28;20175;-66
2023/10/29 10:15:31;;;;;;;2.57;2.33;;;15.80;99.90;;;;;;5012336;28;20544;-66
2023/10/29 10:17:58;;;;;;;2.67;2.10;;;15.90;99.90;;;;;;5012086;28;20488;-66
2023/10/29 10:20:24;;;;;;;2.10;1.77;;;15.70;99.90;;;;;;5012393;28;20644;-66
2023/10/29 10:23:07;;;;;;;1.73;1.53;;;15.70;99.90;;;;;;5012079;28;20417;-66
2023/10/29 10:25:34;;;;;;;2.03;1.83;;;15.70;99.90;;;;;;5012269;28;20968;-66
2023/10/29 10:28:02;;;;;;;2.50;2.00;;;15.80;99.90;;;;;;5011969;28;20472;-66
2023/10/29 10:30:33;;;;;;;2.37;2.17;;;15.70;99.90;;;;;;5012217;28;20509;-66
2023/10/29 10:33:18;;;;;;;2.53;2.13;;;15.60;99.90;;;;;;5012047;28;20418;-66
2023/10/29 10:35:51;;;;;;;2.57;2.33;;;15.50;99.90;;;;;;5012141;28;20461;-66
2023/10/29 10:38:25;;;;;;;4.10;2.70;;;15.50;99.90;;;;;;5012148;28;20441;-66
2023/10/29 10:40:58;;;;;;;2.87;2.57;;;15.50;99.90;;;;;;5012447;28;20994;-66
2023/10/29 10:43:26;;;;;;;5.47;2.33;;;15.70;99.90;;;;;;5011733;28;20454;-66
2023/10/29 10:45:52;;;;;;;4.70;2.60;;;15.90;99.90;;;;;;5012136;28;20432;-66
2023/10/29 10:48:18;;;;;;;3.67;3.47;;;16.10;99.90;;;;;;5011944;28;20524;-66
2023/10/29 10:50:43;;;;;;;5.70;2.73;;;16.10;99.90;;;;;;5012044;28;20648;-66
2023/10/29 10:53:13;;;;;;;3.53;3.20;;;16.20;99.90;;;;;;5011846;28;20177;-66
2023/10/29 10:55:40;;;;;;;30.20;5.47;;;16.30;99.90;;;;;;5012142;28;20715;-66
2023/10/29 10:58:06;;;;;;;3.70;2.90;;;16.10;99.90;;;;;;5011979;28;20821;-66
2023/10/29 11:00:33;;;;;;;2.50;2.30;;;15.80;99.90;;;;;;5012121;28;20957;-66
2023/10/29 11:02:59;;;;;;;2.60;2.40;;;15.70;99.90;;;;;;5011844;28;20922;-66
2023/10/29 11:05:30;;;;;;;4.53;3.03;;;15.80;99.90;;;;;;5012182;28;20422;-66
2023/10/29 11:07:56;;;;;;;3.17;2.43;;;15.90;99.90;;;;;;5011506;28;21212;-66
2023/10/29 11:10:23;;;;;;;2.60;2.40;;;16.00;99.90;;;;;;5011985;28;20418;-66
2023/10/29 11:12:49;;;;;;;4.80;2.57;;;16.00;99.90;;;;;;5011715;28;20939;-66
2023/10/29 11:15:19;;;;;;;4.17;2.50;;;16.00;99.90;;;;;;5011929;28;20492;-66
2023/10/29 11:18:01;;;;;;;2.67;2.47;;;16.00;99.90;;;;;;5011932;28;20187;-66
2023/10/29 11:20:49;;;;;;;3.50;2.70;;;16.00;99.90;;;;;;5011962;28;20495;-66
2023/10/29 11:23:29;;;;;;;2.93;2.30;;;16.10;99.90;;;;;;5011738;28;20418;-67
2023/10/29 11:26:19;;;;;;;2.70;2.50;;;16.20;99.90;;;;;;5011964;28;20457;-67
2023/10/29 11:28:45;;;;;;;2.43;2.20;;;16.10;99.90;;;;;;5012013;28;20469;-66
2023/10/29 11:31:21;;;;;;;2.00;1.90;;;16.20;99.90;;;;;;5013955;28;20954;-66
2023/10/29 11:34:27;;;;;;;4.23;2.23;;;16.50;99.90;;;;;;5015361;28;20173;-66
2023/10/29 11:36:53;;;;;;;2.23;2.13;;;16.90;99.90;;;;;;5004422;28;20803;-66
2023/10/29 11:39:28;;;;;;;1.80;1.60;;;17.40;99.90;;;;;;5015432;28;20429;-66
2023/10/29 11:41:55;;;;;;;1.73;1.63;;;17.80;99.90;;;;;;5015456;28;20167;-66
2023/10/29 11:44:26;;;;;;;2.40;1.60;;;18.30;99.90;;;;;;5015079;28;20422;-66
2023/10/29 11:46:55;;;;;;;1.57;1.47;;;18.80;99.90;;;;;;5015392;28;20410;-66
2023/10/29 11:49:41;;;;;;;2.37;1.90;;;19.30;99.90;;;;;;5015296;28;20416;-66
2023/10/29 11:52:06;;;;;;;2.70;2.03;;;19.80;99.90;;;;;;5013933;28;20422;-66
2023/10/29 11:54:33;;;;;;;2.50;1.67;;;19.50;99.90;;;;;;5014880;28;20899;-66
2023/10/29 11:56:59;;;;;;;2.20;1.63;;;19.10;99.30;;;;;;5015031;28;20209;-66
2023/10/29 11:59:25;;;;;;;1.47;1.30;;;18.80;99.90;;;;;;5015094;28;20421;-66
2023/10/29 12:01:51;;;;;;;2.10;1.70;;;18.70;99.90;;;;;;5015015;28;20414;-66
2023/10/29 12:04:16;;;;;;;2.23;1.30;;;18.70;99.90;;;;;;5014737;28;20417;-66
2023/10/29 12:06:46;;;;;;;1.43;0.97;;;19.50;97.80;;;;;;5014909;28;20654;-66
2023/10/29 12:09:22;;;;;;;1.63;1.50;;;21.20;93.60;;;;;;5014389;28;20290;-67
2023/10/29 12:11:52;;;;;;;1.83;1.20;;;23.50;79.10;;;;;;5014805;28;20464;-66
2023/10/29 12:14:46;;;;;;;2.70;1.20;;;25.00;64.70;;;;;;5014567;28;20450;-66
2023/10/29 12:17:14;;;;;;;1.07;0.97;;;25.70;59.40;;;;;;5014747;28;20436;-67
2023/10/29 12:19:41;;;;;;;1.00;0.93;;;26.30;55.90;;;;;;5014813;28;20414;-66
2023/10/29 12:22:24;;;;;;;1.33;1.23;;;24.80;54.00;;;;;;5014669;28;20406;-66
2023/10/29 12:24:53;;;;;;;1.30;1.20;;;22.90;57.40;;;;;;5014451;28;20785;-66
2023/10/29 12:27:21;;;;;;;1.53;1.30;;;22.90;58.60;;;;;;5014455;28;21000;-66
2023/10/29 12:29:47;;;;;;;2.37;1.47;;;22.50;58.90;;;;;;5014664;28;20429;-66
2023/10/29 12:32:17;;;;;;;1.30;1.20;;;22.10;61.00;;;;;;5014593;28;20426;-66
2023/10/29 12:34:51;;;;;;;2.50;1.20;;;21.50;63.10;;;;;;5014103;28;20448;-66
2023/10/29 12:37:34;;;;;;;1.43;1.03;;;21.00;66.80;;;;;;5013059;28;20478;-66
2023/10/29 12:40:01;;;;;;;1.27;1.17;;;20.70;68.70;;;;;;5014424;28;20507;-66
2023/10/29 12:42:52;;;;;;;1.67;1.20;;;20.50;68.20;;;;;;5014096;28;20418;-66
2023/10/29 12:45:24;;;;;;;2.30;1.37;;;20.60;69.50;;;;;;5014244;28;20475;-66
2023/10/29 12:48:09;;;;;;;1.30;1.20;;;20.70;67.00;;;;;;5014200;28;20437;-66